Time,TemperatureF,DewpointF,PressureIn,WindDirection,WindDirectionDegrees,WindSpeedMPH,WindSpeedGustMPH,Humidity,HourlyPrecipIn,Conditions,Clouds,dailyrainin,SolarRadiationWatts/m^2,SoftwareType,DateUTC
2013-03-04 00:00:00,29.0,19.8,29.85,WSW,248,11.0,14.0,68,-99.99,,,0.00,0.00,VWS V14.01,2013-03-04 05:00:00,
2013-03-04 00:05:00,29.0,20.1,29.85,West,270,9.0,14.0,69,-99.99,,,0.00,0.00,VWS V14.01,2013-03-04 05:05:00,
2013-03-04 00:10:00,28.0,19.2,29.85,WSW,248,7.0,13.0,69,-99.99,,,0.00,0.00,VWS V14.01,2013-03-04 05:10:00,
2013-03-04 00:15:00,29.0,20.1,29.85,WSW,248,8.0,14.0,69,-99.99,,,0.00,0.00,VWS V14.01,2013-03-04 05:15:00,
2013-03-04 00:20:00,28.0,19.2,29.85,SW,225,5.0,8.0,69,-99.99,,,0.00,0.00,VWS V14.01,2013-03-04 05:20:00,
2013-03-04 00:25:00,28.0,19.5,29.85,West,270,10.0,13.0,70,-99.99,,,0.00,0.00,VWS V14.01,2013-03-04 05:25:00,
2013-03-04 00:30:00,28.0,19.5,29.85,WSW,248,13.0,14.0,70,-99.99,,,0.00,0.00,VWS V14.01,2013-03-04 05:30:00,
2013-03-04 00:35:00,28.0,19.5,29.85,WSW,248,7.0,11.0,70,-99.99,,,0.00,0.00,VWS V14.01,2013-03-04 05:35:00,
2013-03-04 00:40:00,28.0,19.5,29.85,WSW,248,7.0,8.0,70,-99.99,,,0.00,0.00,VWS V14.01,2013-03-04 05:40:00,
2013-03-04 00:45:00,28.0,19.8,29.85,WSW,248,7.0,12.0,71,-99.99,,,0.00,0.00,VWS V14.01,2013-03-04 05:45:00,
2013-03-04 00:50:00,28.0,19.8,29.85,West,270,14.0,18.0,71,-99.99,,,0.00,0.00,VWS V14.01,2013-03-04 05:50:00,
2013-03-04 00:55:00,28.0,19.8,29.85,SW,225,9.0,12.0,71,-99.99,,,0.00,0.00,VWS V14.01,2013-03-04 05:55:00,
2013-03-04 01:00:00,28.0,19.8,29.85,WSW,248,7.0,12.0,71,-99.99,,,0.00,0.00,VWS V14.01,2013-03-04 06:00:00,
2013-03-04 01:05:00,28.0,19.8,29.85,WSW,248,9.0,13.0,71,-99.99,,,0.00,0.00,VWS V14.01,2013-03-04 06:05:00,
2013-03-04 01:10:00,28.0,20.2,29.85,WSW,248,10.0,13.0,72,-99.99,,,0.00,0.00,VWS V14.01,2013-03-04 06:10:00,
2013-03-04 01:15:00,28.0,20.5,29.85,WSW,248,11.0,13.0,73,-99.99,,,0.00,0.00,VWS V14.01,2013-03-04 06:15:00,
2013-03-04 01:20:00,28.0,20.5,29.85,West,270,11.0,13.0,73,-99.99,,,0.00,0.00,VWS V14.01,2013-03-04 06:20:00,
2013-03-04 01:25:00,28.0,20.5,29.85,WSW,248,13.0,14.0,73,-99.99,,,0.00,0.00,VWS V14.01,2013-03-04 06:25:00,
2013-03-04 01:30:00,28.0,20.8,29.85,WSW,248,10.0,15.0,74,-99.99,,,0.00,0.00,VWS V14.01,2013-03-04 06:30:00,
2013-03-04 01:35:00,28.0,20.8,29.85,West,270,11.0,13.0,74,-99.99,,,0.00,0.00,VWS V14.01,2013-03-04 06:35:00,
2013-03-04 01:40:00,28.0,20.8,29.85,WSW,248,13.0,13.0,74,-99.99,,,0.00,0.00,VWS V14.01,2013-03-04 06:40:00,
2013-03-04 01:45:00,28.0,21.1,29.85,WSW,248,12.0,14.0,75,-99.99,,,0.00,0.00,VWS V14.01,2013-03-04 06:45:00,
2013-03-04 01:50:00,28.0,21.1,29.85,SSW,202,1.0,6.0,75,-99.99,,,0.00,0.00,VWS V14.01,2013-03-04 06:50:00,
2013-03-04 01:55:00,28.0,21.1,29.85,West,270,5.0,11.0,75,-99.99,,,0.00,0.00,VWS V14.01,2013-03-04 06:55:00,
2013-03-04 02:00:00,28.0,21.4,29.85,WSW,248,11.0,13.0,76,-99.99,,,0.00,0.00,VWS V14.01,2013-03-04 07:00:00,
2013-03-04 02:05:00,28.0,21.7,29.85,WSW,248,12.0,14.0,77,-99.99,,,0.00,0.00,VWS V14.01,2013-03-04 07:05:00,
2013-03-04 02:10:00,28.0,22.0,29.85,West,270,9.0,11.0,78,-99.99,,,0.00,0.00,VWS V14.01,2013-03-04 07:10:00,
2013-03-04 02:15:00,28.0,22.0,29.85,SW,225,4.0,7.0,78,-99.99,,,0.00,0.00,VWS V14.01,2013-03-04 07:15:00,
2013-03-04 02:20:00,28.0,22.0,29.85,WSW,248,9.0,10.0,78,-99.99,,,0.00,0.00,VWS V14.01,2013-03-04 07:20:00,
2013-03-04 02:25:00,28.0,22.3,29.85,WSW,248,4.0,8.0,79,-99.99,,,0.00,0.00,VWS V14.01,2013-03-04 07:25:00,
2013-03-04 02:30:00,28.0,22.3,29.85,WSW,248,6.0,8.0,79,-99.99,,,0.00,0.00,VWS V14.01,2013-03-04 07:30:00,
2013-03-04 02:35:00,28.0,22.3,29.85,West,270,8.0,12.0,79,-99.99,,,0.00,0.00,VWS V14.01,2013-03-04 07:35:00,
2013-03-04 02:40:00,28.0,22.3,29.85,West,270,6.0,11.0,79,-99.99,,,0.00,0.00,VWS V14.01,2013-03-04 07:40:00,
2013-03-04 02:45:00,28.0,22.0,29.85,SW,225,7.0,10.0,78,-99.99,,,0.00,0.00,VWS V14.01,2013-03-04 07:45:00,
2013-03-04 02:50:00,28.0,22.0,29.85,SW,225,8.0,11.0,78,-99.99,,,0.00,0.00,VWS V14.01,2013-03-04 07:50:00,
2013-03-04 02:55:00,28.0,21.7,29.85,West,270,6.0,11.0,77,-99.99,,,0.00,0.00,VWS V14.01,2013-03-04 07:55:00,
2013-03-04 03:00:00,28.0,21.4,29.85,WSW,248,11.0,14.0,76,-99.99,,,0.00,0.00,VWS V14.01,2013-03-04 08:00:00,
2013-03-04 03:05:00,28.0,21.4,29.85,WSW,248,9.0,15.0,76,-99.99,,,0.00,0.00,VWS V14.01,2013-03-04 08:05:00,
2013-03-04 03:10:00,28.0,21.1,29.85,WSW,248,9.0,13.0,75,-99.99,,,0.00,0.00,VWS V14.01,2013-03-04 08:10:00,
2013-03-04 03:15:00,28.0,21.1,29.85,WSW,248,13.0,16.0,75,-99.99,,,0.00,0.00,VWS V14.01,2013-03-04 08:15:00,
2013-03-04 03:20:00,28.0,20.8,29.85,SW,225,7.0,10.0,74,-99.99,,,0.00,0.00,VWS V14.01,2013-03-04 08:20:00,
2013-03-04 03:25:00,28.0,20.8,29.85,SW,225,9.0,13.0,74,-99.99,,,0.00,0.00,VWS V14.01,2013-03-04 08:25:00,
2013-03-04 03:30:00,28.0,20.8,29.85,WSW,248,13.0,14.0,74,-99.99,,,0.00,0.00,VWS V14.01,2013-03-04 08:30:00,
2013-03-04 03:35:00,28.0,20.8,29.85,WSW,248,14.0,14.0,74,-99.99,,,0.00,0.00,VWS V14.01,2013-03-04 08:35:00,
2013-03-04 03:40:00,28.0,20.8,29.85,SW,225,13.0,15.0,74,-99.99,,,0.00,0.00,VWS V14.01,2013-03-04 08:40:00,
2013-03-04 03:45:00,28.0,20.8,29.85,WSW,248,9.0,14.0,74,-99.99,,,0.00,0.00,VWS V14.01,2013-03-04 08:45:00,
2013-03-04 03:50:00,28.0,20.8,29.85,WSW,248,10.0,12.0,74,-99.99,,,0.00,0.00,VWS V14.01,2013-03-04 08:50:00,
2013-03-04 03:55:00,28.0,20.8,29.85,West,270,9.0,16.0,74,-99.99,,,0.00,0.00,VWS V14.01,2013-03-04 08:55:00,
2013-03-04 04:00:00,28.0,20.8,29.86,WSW,248,9.0,14.0,74,-99.99,,,0.00,0.00,VWS V14.01,2013-03-04 09:00:00,
2013-03-04 04:05:00,28.0,20.5,29.86,West,270,10.0,11.0,73,-99.99,,,0.00,0.00,VWS V14.01,2013-03-04 09:05:00,
2013-03-04 04:10:00,28.0,19.8,29.86,West,270,16.0,19.0,71,-99.99,,,0.00,0.00,VWS V14.01,2013-03-04 09:10:00,
2013-03-04 04:15:00,28.0,19.2,29.86,West,270,9.0,19.0,69,-99.99,,,0.00,0.00,VWS V14.01,2013-03-04 09:15:00,
2013-03-04 04:20:00,28.0,18.8,29.86,West,270,10.0,17.0,68,-99.99,,,0.00,0.00,VWS V14.01,2013-03-04 09:20:00,
2013-03-04 04:25:00,28.0,18.8,29.86,WSW,248,13.0,13.0,68,-99.99,,,0.00,0.00,VWS V14.01,2013-03-04 09:25:00,
2013-03-04 04:30:00,28.0,18.8,29.87,WSW,248,7.0,14.0,68,-99.99,,,0.00,0.00,VWS V14.01,2013-03-04 09:30:00,
2013-03-04 04:35:00,28.0,18.8,29.87,West,270,8.0,13.0,68,-99.99,,,0.00,0.00,VWS V14.01,2013-03-04 09:35:00,
2013-03-04 04:40:00,27.0,17.5,29.87,SW,225,18.0,27.0,67,-99.99,,,0.00,0.00,VWS V14.01,2013-03-04 09:40:00,
2013-03-04 04:45:00,27.0,17.2,29.87,WSW,248,16.0,25.0,66,-99.99,,,0.00,0.00,VWS V14.01,2013-03-04 09:45:00,
2013-03-04 04:50:00,27.0,17.2,29.87,WSW,248,14.0,19.0,66,-99.99,,,0.00,0.00,VWS V14.01,2013-03-04 09:50:00,
2013-03-04 04:55:00,27.0,16.8,29.87,WSW,248,21.0,22.0,65,-99.99,,,0.00,0.00,VWS V14.01,2013-03-04 09:55:00,
2013-03-04 05:00:00,27.0,16.8,29.87,WSW,248,16.0,23.0,65,-99.99,,,0.00,0.00,VWS V14.01,2013-03-04 10:00:00,
2013-03-04 05:05:00,27.0,16.8,29.88,WSW,248,13.0,20.0,65,-99.99,,,0.00,0.00,VWS V14.01,2013-03-04 10:05:00,
2013-03-04 05:10:00,27.0,16.5,29.88,WSW,248,21.0,28.0,64,-99.99,,,0.00,0.00,VWS V14.01,2013-03-04 10:10:00,
2013-03-04 05:15:00,27.0,16.5,29.89,West,270,14.0,22.0,64,-99.99,,,0.00,0.00,VWS V14.01,2013-03-04 10:15:00,
2013-03-04 05:20:00,27.0,16.1,29.89,WSW,248,24.0,25.0,63,-99.99,,,0.00,0.00,VWS V14.01,2013-03-04 10:20:00,
2013-03-04 05:25:00,27.0,16.1,29.89,WSW,248,22.0,26.0,63,-99.99,,,0.00,0.00,VWS V14.01,2013-03-04 10:25:00,
2013-03-04 05:30:00,27.0,16.5,29.89,WSW,248,20.0,31.0,64,-99.99,,,0.00,0.00,VWS V14.01,2013-03-04 10:30:00,
2013-03-04 05:35:00,26.0,15.5,29.89,SW,225,14.0,19.0,64,-99.99,,,0.00,0.00,VWS V14.01,2013-03-04 10:35:00,
2013-03-04 05:40:00,26.0,15.9,29.89,WSW,248,17.0,21.0,65,-99.99,,,0.00,0.00,VWS V14.01,2013-03-04 10:40:00,
2013-03-04 05:45:00,26.0,15.9,29.90,WSW,248,14.0,23.0,65,-99.99,,,0.00,0.00,VWS V14.01,2013-03-04 10:45:00,
2013-03-04 05:50:00,26.0,15.9,29.90,WSW,248,13.0,14.0,65,-99.99,,,0.00,0.00,VWS V14.01,2013-03-04 10:50:00,
2013-03-04 05:55:00,26.0,16.2,29.90,West,270,17.0,17.0,66,-99.99,,,0.00,0.00,VWS V14.01,2013-03-04 10:55:00,
2013-03-04 06:00:00,26.0,16.2,29.90,WSW,248,13.0,17.0,66,-99.99,,,0.00,0.00,VWS V14.01,2013-03-04 11:00:00,
2013-03-04 06:05:00,26.0,16.6,29.90,WSW,248,12.0,14.0,67,-99.99,,,0.00,0.00,VWS V14.01,2013-03-04 11:05:00,
2013-03-04 06:10:00,26.0,16.6,29.90,WSW,248,11.0,17.0,67,-99.99,,,0.00,0.00,VWS V14.01,2013-03-04 11:10:00,
2013-03-04 06:15:00,26.0,16.6,29.90,West,270,11.0,17.0,67,-99.99,,,0.00,0.00,VWS V14.01,2013-03-04 11:15:00,
2013-03-04 06:20:00,26.0,16.6,29.90,West,270,12.0,23.0,67,-99.99,,,0.00,0.00,VWS V14.01,2013-03-04 11:20:00,
2013-03-04 06:25:00,26.0,16.2,29.90,WSW,248,19.0,28.0,66,-99.99,,,0.00,0.00,VWS V14.01,2013-03-04 11:25:00,
2013-03-04 06:30:00,26.0,16.2,29.90,WSW,248,16.0,18.0,66,-99.99,,,0.00,0.00,VWS V14.01,2013-03-04 11:30:00,
2013-03-04 06:35:00,26.0,16.2,29.91,West,270,10.0,22.0,66,-99.99,,,0.00,0.00,VWS V14.01,2013-03-04 11:35:00,
2013-03-04 06:40:00,26.0,16.2,29.91,WSW,248,13.0,17.0,66,-99.99,,,0.00,10.00,VWS V14.01,2013-03-04 11:40:00,
2013-03-04 06:45:00,26.0,16.2,29.91,WSW,248,22.0,22.0,66,-99.99,,,0.00,10.00,VWS V14.01,2013-03-04 11:45:00,
2013-03-04 06:50:00,26.0,16.2,29.91,SW,225,23.0,23.0,66,-99.99,,,0.00,10.00,VWS V14.01,2013-03-04 11:50:00,
2013-03-04 06:55:00,26.0,16.2,29.91,WSW,248,17.0,22.0,66,-99.99,,,0.00,20.00,VWS V14.01,2013-03-04 11:55:00,
2013-03-04 07:00:00,26.0,16.2,29.91,West,270,13.0,16.0,66,-99.99,,,0.00,20.00,VWS V14.01,2013-03-04 12:00:00,
2013-03-04 07:05:00,26.0,16.2,29.91,WSW,248,10.0,16.0,66,-99.99,,,0.00,30.00,VWS V14.01,2013-03-04 12:05:00,
2013-03-04 07:10:00,26.0,16.2,29.91,West,270,16.0,18.0,66,-99.99,,,0.00,30.00,VWS V14.01,2013-03-04 12:10:00,
2013-03-04 07:15:00,26.0,16.6,29.91,WSW,248,15.0,18.0,67,-99.99,,,0.00,30.00,VWS V14.01,2013-03-04 12:15:00,
2013-03-04 07:20:00,26.0,16.6,29.92,WSW,248,12.0,18.0,67,-99.99,,,0.00,30.00,VWS V14.01,2013-03-04 12:20:00,
2013-03-04 07:25:00,26.0,16.6,29.92,WSW,248,12.0,13.0,67,-99.99,,,0.00,30.00,VWS V14.01,2013-03-04 12:25:00,
2013-03-04 07:30:00,26.0,16.6,29.92,WSW,248,13.0,15.0,67,-99.99,,,0.00,30.00,VWS V14.01,2013-03-04 12:30:00,
2013-03-04 07:35:00,26.0,16.6,29.92,WSW,248,18.0,18.0,67,-99.99,,,0.00,40.00,VWS V14.01,2013-03-04 12:35:00,
2013-03-04 07:40:00,26.0,16.6,29.92,WSW,248,20.0,23.0,67,-99.99,,,0.00,50.00,VWS V14.01,2013-03-04 12:40:00,
2013-03-04 07:45:00,26.0,16.6,29.92,WSW,248,9.0,19.0,67,-99.99,,,0.00,60.00,VWS V14.01,2013-03-04 12:45:00,
2013-03-04 07:50:00,26.0,16.6,29.92,WSW,248,9.0,19.0,67,-99.99,,,0.00,80.00,VWS V14.01,2013-03-04 12:50:00,
2013-03-04 07:55:00,26.0,16.2,29.92,SW,225,20.0,22.0,66,-99.99,,,0.00,80.00,VWS V14.01,2013-03-04 12:55:00,
2013-03-04 08:00:00,26.0,16.2,29.93,SW,225,18.0,19.0,66,-99.99,,,0.00,90.00,VWS V14.01,2013-03-04 13:00:00,
2013-03-04 08:05:00,26.0,16.2,29.93,West,270,9.0,13.0,66,-99.99,,,0.00,80.00,VWS V14.01,2013-03-04 13:05:00,
2013-03-04 08:10:00,26.0,16.2,29.93,WSW,248,11.0,11.0,66,-99.99,,,0.00,100.00,VWS V14.01,2013-03-04 13:10:00,
2013-03-04 08:15:00,26.0,16.2,29.93,WSW,248,17.0,17.0,66,-99.99,,,0.00,100.00,VWS V14.01,2013-03-04 13:15:00,
2013-03-04 08:20:00,26.0,16.2,29.93,West,270,15.0,16.0,66,-99.99,,,0.00,100.00,VWS V14.01,2013-03-04 13:20:00,
2013-03-04 08:25:00,26.0,16.2,29.93,WSW,248,13.0,16.0,66,-99.99,,,0.00,100.00,VWS V14.01,2013-03-04 13:25:00,
2013-03-04 08:30:00,26.0,16.2,29.93,West,270,10.0,10.0,66,-99.99,,,0.00,100.00,VWS V14.01,2013-03-04 13:30:00,
2013-03-04 08:36:00,26.0,15.9,29.93,West,270,19.0,19.0,65,-99.99,,,0.00,110.00,VWS V14.01,2013-03-04 13:36:00,
2013-03-04 08:41:00,26.0,16.2,29.93,WSW,248,12.0,15.0,66,-99.99,,,0.00,110.00,VWS V14.01,2013-03-04 13:41:00,
2013-03-04 08:46:00,26.0,16.2,29.93,West,270,14.0,14.0,66,-99.99,,,0.00,110.00,VWS V14.01,2013-03-04 13:46:00,
2013-03-04 08:51:00,26.0,16.2,29.93,WSW,248,17.0,18.0,66,-99.99,,,0.00,120.00,VWS V14.01,2013-03-04 13:51:00,
2013-03-04 08:56:00,26.0,16.2,29.93,WSW,248,17.0,19.0,66,-99.99,,,0.00,120.00,VWS V14.01,2013-03-04 13:56:00,
2013-03-04 09:01:00,26.0,16.2,29.93,West,270,22.0,23.0,66,-99.99,,,0.00,140.00,VWS V14.01,2013-03-04 14:01:00,
2013-03-04 09:06:00,26.0,16.2,29.93,WSW,248,12.0,14.0,66,-99.99,,,0.00,180.00,VWS V14.01,2013-03-04 14:06:00,
2013-03-04 09:11:00,27.0,17.2,29.93,WSW,248,16.0,22.0,66,-99.99,,,0.00,200.00,VWS V14.01,2013-03-04 14:11:00,
2013-03-04 09:16:00,27.0,17.2,29.93,WSW,248,15.0,22.0,66,-99.99,,,0.00,190.00,VWS V14.01,2013-03-04 14:16:00,
2013-03-04 09:21:00,27.0,16.8,29.93,SW,225,21.0,29.0,65,-99.99,,,0.00,180.00,VWS V14.01,2013-03-04 14:21:00,
2013-03-04 09:26:00,27.0,17.2,29.93,WSW,248,17.0,23.0,66,-99.99,,,0.00,200.00,VWS V14.01,2013-03-04 14:26:00,
2013-03-04 09:31:00,27.0,17.2,29.93,WSW,248,12.0,18.0,66,-99.99,,,0.00,200.00,VWS V14.01,2013-03-04 14:31:00,
2013-03-04 09:36:00,27.0,16.5,29.93,West,270,14.0,19.0,64,-99.99,,,0.00,270.00,VWS V14.01,2013-03-04 14:36:00,
2013-03-04 09:41:00,27.0,16.8,29.93,WSW,248,15.0,16.0,65,-99.99,,,0.00,270.00,VWS V14.01,2013-03-04 14:41:00,
2013-03-04 09:46:00,27.0,16.5,29.93,West,270,14.0,18.0,64,-99.99,,,0.00,260.00,VWS V14.01,2013-03-04 14:46:00,
2013-03-04 09:51:00,28.0,17.4,29.92,West,270,21.0,29.0,64,-99.99,,,0.00,190.00,VWS V14.01,2013-03-04 14:51:00,
2013-03-04 09:56:00,28.0,17.4,29.93,West,270,13.0,20.0,64,-99.99,,,0.00,240.00,VWS V14.01,2013-03-04 14:56:00,
2013-03-04 10:01:00,28.0,17.0,29.93,West,270,23.0,23.0,63,-99.99,,,0.00,270.00,VWS V14.01,2013-03-04 15:01:00,
2013-03-04 10:06:00,28.0,16.7,29.93,WSW,248,10.0,17.0,62,-99.99,,,0.00,200.00,VWS V14.01,2013-03-04 15:06:00,
2013-03-04 10:10:00,28.0,16.7,29.93,SW,225,11.0,17.0,62,-99.99,,,0.00,240.00,VWS V14.01,2013-03-04 15:10:00,
2013-03-04 10:16:00,29.0,17.6,29.92,WNW,292,9.0,9.0,62,-99.99,,,0.00,310.00,VWS V14.01,2013-03-04 15:16:00,
2013-03-04 10:21:00,29.0,16.9,29.92,WSW,248,11.0,14.0,60,-99.99,,,0.00,710.00,VWS V14.01,2013-03-04 15:21:00,
2013-03-04 10:26:00,29.0,16.9,29.92,SW,225,13.0,21.0,60,-99.99,,,0.00,350.00,VWS V14.01,2013-03-04 15:26:00,
2013-03-04 10:30:00,29.0,16.9,29.92,West,270,17.0,22.0,60,-99.99,,,0.00,280.00,VWS V14.01,2013-03-04 15:30:00,
2013-03-04 10:36:00,29.0,16.9,29.92,WSW,248,27.0,27.0,60,-99.99,,,0.00,360.00,VWS V14.01,2013-03-04 15:36:00,
2013-03-04 10:41:00,29.0,16.9,29.92,West,270,19.0,25.0,60,-99.99,,,0.00,420.00,VWS V14.01,2013-03-04 15:41:00,
2013-03-04 10:45:00,29.0,16.9,29.92,WSW,248,17.0,18.0,60,-99.99,,,0.00,610.00,VWS V14.01,2013-03-04 15:45:00,
2013-03-04 10:50:00,30.0,17.4,29.92,SSW,202,22.0,22.0,59,-99.99,,,0.00,700.00,VWS V14.01,2013-03-04 15:50:00,
2013-03-04 10:56:00,31.0,18.0,29.92,SW,225,10.0,12.0,58,-99.99,,,0.00,500.00,VWS V14.01,2013-03-04 15:56:00,
2013-03-04 11:00:00,31.0,18.0,29.92,SW,225,14.0,19.0,58,-99.99,,,0.00,780.00,VWS V14.01,2013-03-04 16:00:00,
2013-03-04 11:05:00,30.0,17.0,29.92,West,270,10.0,20.0,58,-99.99,,,0.00,240.00,VWS V14.01,2013-03-04 16:05:00,
2013-03-04 11:10:00,31.0,18.4,29.92,SW,225,16.0,18.0,59,-99.99,,,0.00,240.00,VWS V14.01,2013-03-04 16:10:00,
2013-03-04 11:15:00,31.0,18.0,29.91,WNW,292,14.0,18.0,58,-99.99,,,0.00,270.00,VWS V14.01,2013-03-04 16:15:00,
2013-03-04 11:20:00,30.0,17.0,29.92,WSW,248,22.0,24.0,58,-99.99,,,0.00,250.00,VWS V14.01,2013-03-04 16:20:00,
2013-03-04 11:25:00,30.0,17.0,29.92,WSW,248,25.0,25.0,58,-99.99,,,0.00,740.00,VWS V14.01,2013-03-04 16:25:00,
2013-03-04 11:30:00,31.0,18.0,29.92,SW,225,15.0,19.0,58,-99.99,,,0.00,220.00,VWS V14.01,2013-03-04 16:30:00,
2013-03-04 11:35:00,30.0,17.0,29.92,WSW,248,23.0,24.0,58,-99.99,,,0.00,650.00,VWS V14.01,2013-03-04 16:35:00,
2013-03-04 11:40:00,31.0,18.0,29.92,West,270,10.0,14.0,58,-99.99,,,0.00,710.00,VWS V14.01,2013-03-04 16:40:00,
2013-03-04 11:45:00,31.0,18.0,29.92,SSW,202,18.0,25.0,58,-99.99,,,0.00,210.00,VWS V14.01,2013-03-04 16:45:00,
2013-03-04 11:50:00,32.0,18.9,29.92,WSW,248,17.0,17.0,58,-99.99,,,0.00,250.00,VWS V14.01,2013-03-04 16:50:00,
2013-03-04 11:55:00,32.0,18.5,29.92,West,270,21.0,27.0,57,-99.99,,,0.00,270.00,VWS V14.01,2013-03-04 16:55:00,
2013-03-04 12:00:00,31.0,18.0,29.92,WSW,248,8.0,19.0,58,-99.99,,,0.00,330.00,VWS V14.01,2013-03-04 17:00:00,
2013-03-04 12:05:00,32.0,18.9,29.92,South,180,13.0,21.0,58,-99.99,,,0.00,420.00,VWS V14.01,2013-03-04 17:05:00,
2013-03-04 12:10:00,32.0,18.9,29.92,West,270,16.0,22.0,58,-99.99,,,0.00,820.00,VWS V14.01,2013-03-04 17:10:00,
2013-03-04 12:15:00,32.0,18.9,29.92,West,270,15.0,17.0,58,-99.99,,,0.00,790.00,VWS V14.01,2013-03-04 17:15:00,
2013-03-04 12:20:00,32.0,18.9,29.91,WSW,248,12.0,15.0,58,-99.99,,,0.00,340.00,VWS V14.01,2013-03-04 17:20:00,
2013-03-04 12:25:00,33.0,19.4,29.91,West,270,16.0,16.0,57,-99.99,,,0.00,700.00,VWS V14.01,2013-03-04 17:25:00,
2013-03-04 12:30:00,33.0,19.4,29.91,SSW,202,9.0,16.0,57,-99.99,,,0.00,720.00,VWS V14.01,2013-03-04 17:30:00,
2013-03-04 12:35:00,32.0,18.1,29.91,WSW,248,32.0,32.0,56,-99.99,,,0.00,680.00,VWS V14.01,2013-03-04 17:35:00,
2013-03-04 12:40:00,32.0,18.9,29.91,SW,225,20.0,21.0,58,-99.99,,,0.00,720.00,VWS V14.01,2013-03-04 17:40:00,
2013-03-04 12:45:00,33.0,19.4,29.90,SW,225,25.0,33.0,57,-99.99,,,0.00,720.00,VWS V14.01,2013-03-04 17:45:00,
2013-03-04 12:50:00,33.0,19.9,29.90,WSW,248,14.0,18.0,58,-99.99,,,0.00,770.00,VWS V14.01,2013-03-04 17:50:00,
2013-03-04 12:55:00,33.0,19.4,29.90,SW,225,13.0,16.0,57,-99.99,,,0.00,310.00,VWS V14.01,2013-03-04 17:55:00,
2013-03-04 13:00:00,33.0,19.9,29.90,SW,225,13.0,19.0,58,-99.99,,,0.00,370.00,VWS V14.01,2013-03-04 18:00:00,
2013-03-04 13:05:00,33.0,20.2,29.90,SW,225,16.0,19.0,59,-99.99,,,0.00,730.00,VWS V14.01,2013-03-04 18:05:00,
2013-03-04 13:11:00,34.0,21.2,29.90,WNW,292,6.0,12.0,59,-99.99,,,0.00,270.00,VWS V14.01,2013-03-04 18:11:00,
2013-03-04 13:16:00,33.0,19.9,29.90,WSW,248,25.0,25.0,58,-99.99,,,0.00,190.00,VWS V14.01,2013-03-04 18:16:00,
2013-03-04 13:21:00,33.0,19.9,29.90,SSW,202,19.0,19.0,58,-99.99,,,0.00,630.00,VWS V14.01,2013-03-04 18:21:00,
2013-03-04 13:26:00,33.0,19.9,29.89,SSW,202,19.0,21.0,58,-99.99,,,0.00,250.00,VWS V14.01,2013-03-04 18:26:00,
2013-03-04 13:29:00,33.0,19.4,29.89,SSW,202,15.0,29.0,57,-99.99,,,0.00,710.00,VWS V14.01,2013-03-04 18:29:00,
2013-03-04 13:30:00,33.0,19.4,29.89,SW,225,13.0,17.0,57,-99.99,,,0.00,220.00,VWS V14.01,2013-03-04 18:30:00,
2013-03-04 13:35:00,33.0,19.4,29.89,WSW,248,13.0,26.0,57,-99.99,,,0.00,660.00,VWS V14.01,2013-03-04 18:35:00,
2013-03-04 13:40:00,34.0,20.8,29.89,WSW,248,15.0,27.0,58,-99.99,,,0.00,710.00,VWS V14.01,2013-03-04 18:40:00,
2013-03-04 13:45:00,34.0,20.0,29.89,SW,225,25.0,25.0,56,-99.99,,,0.00,340.00,VWS V14.01,2013-03-04 18:45:00,
2013-03-04 13:50:00,34.0,20.4,29.89,WSW,248,17.0,19.0,57,-99.99,,,0.00,210.00,VWS V14.01,2013-03-04 18:50:00,
2013-03-04 13:55:00,33.0,19.4,29.89,SW,225,7.0,22.0,57,-99.99,,,0.00,210.00,VWS V14.01,2013-03-04 18:55:00,
2013-03-04 14:00:00,33.0,19.4,29.89,SSW,202,17.0,23.0,57,-99.99,,,0.00,650.00,VWS V14.01,2013-03-04 19:00:00,
2013-03-04 14:05:00,34.0,20.4,29.89,SSE,158,19.0,26.0,57,-99.99,,,0.00,640.00,VWS V14.01,2013-03-04 19:05:00,
2013-03-04 14:10:00,34.0,20.4,29.89,SSW,202,20.0,29.0,57,-99.99,,,0.00,190.00,VWS V14.01,2013-03-04 19:10:00,
2013-03-04 14:15:00,34.0,20.8,29.89,South,180,7.0,18.0,58,-99.99,,,0.00,200.00,VWS V14.01,2013-03-04 19:15:00,
2013-03-04 14:20:00,34.0,20.8,29.89,WSW,248,15.0,25.0,58,-99.99,,,0.00,220.00,VWS V14.01,2013-03-04 19:20:00,
2013-03-04 14:25:00,34.0,21.2,29.89,SW,225,20.0,22.0,59,-99.99,,,0.00,390.00,VWS V14.01,2013-03-04 19:25:00,
2013-03-04 14:30:00,34.0,20.8,29.89,SW,225,17.0,23.0,58,-99.99,,,0.00,580.00,VWS V14.01,2013-03-04 19:30:00,
2013-03-04 14:35:00,34.0,20.4,29.89,WSW,248,19.0,19.0,57,-99.99,,,0.00,540.00,VWS V14.01,2013-03-04 19:35:00,
2013-03-04 14:40:00,34.0,20.8,29.89,SW,225,12.0,24.0,58,-99.99,,,0.00,300.00,VWS V14.01,2013-03-04 19:40:00,
2013-03-04 14:45:00,34.0,20.8,29.89,WSW,248,14.0,24.0,58,-99.99,,,0.00,520.00,VWS V14.01,2013-03-04 19:45:00,
2013-03-04 14:50:00,34.0,20.8,29.89,SW,225,24.0,27.0,58,-99.99,,,0.00,530.00,VWS V14.01,2013-03-04 19:50:00,
2013-03-04 14:55:00,34.0,20.8,29.89,West,270,16.0,22.0,58,-99.99,,,0.00,480.00,VWS V14.01,2013-03-04 19:55:00,
2013-03-04 15:00:00,35.0,21.7,29.89,West,270,19.0,24.0,58,-99.99,,,0.00,330.00,VWS V14.01,2013-03-04 20:00:00,
2013-03-04 15:05:00,34.0,20.8,29.89,WSW,248,18.0,19.0,58,-99.99,,,0.00,460.00,VWS V14.01,2013-03-04 20:05:00,
2013-03-04 15:10:00,35.0,21.7,29.89,WSW,248,11.0,25.0,58,-99.99,,,0.00,210.00,VWS V14.01,2013-03-04 20:10:00,
2013-03-04 15:15:00,34.0,20.8,29.89,SW,225,20.0,27.0,58,-99.99,,,0.00,120.00,VWS V14.01,2013-03-04 20:15:00,
2013-03-04 15:20:00,34.0,21.2,29.89,SW,225,19.0,25.0,59,-99.99,,,0.00,480.00,VWS V14.01,2013-03-04 20:20:00,
2013-03-04 15:25:00,34.0,21.2,29.89,WSW,248,11.0,24.0,59,-99.99,,,0.00,240.00,VWS V14.01,2013-03-04 20:25:00,
2013-03-04 15:30:00,34.0,21.2,29.89,SW,225,19.0,29.0,59,-99.99,,,0.00,420.00,VWS V14.01,2013-03-04 20:30:00,
2013-03-04 15:35:00,35.0,22.1,29.89,SW,225,14.0,22.0,59,-99.99,,,0.00,450.00,VWS V14.01,2013-03-04 20:35:00,
2013-03-04 15:40:00,35.0,21.7,29.89,SW,225,19.0,26.0,58,-99.99,,,0.00,380.00,VWS V14.01,2013-03-04 20:40:00,
2013-03-04 15:45:00,35.0,21.7,29.90,SSW,202,20.0,25.0,58,-99.99,,,0.00,440.00,VWS V14.01,2013-03-04 20:45:00,
2013-03-04 15:50:00,36.0,22.7,29.90,WSW,248,13.0,20.0,58,-99.99,,,0.00,440.00,VWS V14.01,2013-03-04 20:50:00,
2013-03-04 15:55:00,35.0,21.7,29.90,SW,225,11.0,16.0,58,-99.99,,,0.00,440.00,VWS V14.01,2013-03-04 20:55:00,
2013-03-04 16:00:00,35.0,21.3,29.89,WSW,248,18.0,19.0,57,-99.99,,,0.00,420.00,VWS V14.01,2013-03-04 21:00:00,
2013-03-04 16:05:00,35.0,21.7,29.90,WSW,248,16.0,20.0,58,-99.99,,,0.00,250.00,VWS V14.01,2013-03-04 21:05:00,
2013-03-04 16:10:00,35.0,21.7,29.90,South,180,12.0,15.0,58,-99.99,,,0.00,160.00,VWS V14.01,2013-03-04 21:10:00,
2013-03-04 16:15:00,35.0,21.7,29.90,WSW,248,22.0,22.0,58,-99.99,,,0.00,170.00,VWS V14.01,2013-03-04 21:15:00,
2013-03-04 16:20:00,35.0,22.1,29.90,West,270,11.0,13.0,59,-99.99,,,0.00,100.00,VWS V14.01,2013-03-04 21:20:00,
2013-03-04 16:25:00,34.0,21.2,29.90,WSW,248,20.0,25.0,59,-99.99,,,0.00,90.00,VWS V14.01,2013-03-04 21:25:00,
2013-03-04 16:30:00,34.0,21.6,29.91,WSW,248,18.0,22.0,60,-99.99,,,0.00,80.00,VWS V14.01,2013-03-04 21:30:00,
2013-03-04 16:35:00,34.0,21.6,29.90,SW,225,14.0,19.0,60,-99.99,,,0.00,70.00,VWS V14.01,2013-03-04 21:35:00,
2013-03-04 16:40:00,35.0,22.5,29.90,SW,225,10.0,11.0,60,-99.99,,,0.00,60.00,VWS V14.01,2013-03-04 21:40:00,
2013-03-04 16:45:00,35.0,22.1,29.91,WSW,248,12.0,16.0,59,-99.99,,,0.00,60.00,VWS V14.01,2013-03-04 21:45:00,
2013-03-04 16:50:00,35.0,22.1,29.90,WSW,248,14.0,19.0,59,-99.99,,,0.00,60.00,VWS V14.01,2013-03-04 21:50:00,
2013-03-04 16:55:00,35.0,22.1,29.91,WSW,248,15.0,23.0,59,-99.99,,,0.00,50.00,VWS V14.01,2013-03-04 21:55:00,
2013-03-04 17:00:00,35.0,22.5,29.91,WSW,248,13.0,16.0,60,-99.99,,,0.00,40.00,VWS V14.01,2013-03-04 22:00:00,
2013-03-04 17:05:00,35.0,22.5,29.91,WSW,248,10.0,16.0,60,-99.99,,,0.00,40.00,VWS V14.01,2013-03-04 22:05:00,
2013-03-04 17:10:00,35.0,22.9,29.91,WNW,292,7.0,13.0,61,-99.99,,,0.00,40.00,VWS V14.01,2013-03-04 22:10:00,
2013-03-04 17:15:00,35.0,22.9,29.91,SSW,202,9.0,18.0,61,-99.99,,,0.00,30.00,VWS V14.01,2013-03-04 22:15:00,
2013-03-04 17:20:00,35.0,23.3,29.91,SSW,202,9.0,13.0,62,-99.99,,,0.00,30.00,VWS V14.01,2013-03-04 22:20:00,
2013-03-04 17:25:00,34.0,22.4,29.92,WSW,248,13.0,24.0,62,-99.99,,,0.00,20.00,VWS V14.01,2013-03-04 22:25:00,
2013-03-04 17:30:00,34.0,22.7,29.92,SW,225,16.0,18.0,63,-99.99,,,0.00,20.00,VWS V14.01,2013-03-04 22:30:00,
2013-03-04 17:35:00,34.0,22.7,29.92,SW,225,9.0,19.0,63,-99.99,,,0.00,10.00,VWS V14.01,2013-03-04 22:35:00,
2013-03-04 17:40:00,34.0,22.7,29.92,WSW,248,7.0,19.0,63,-99.99,,,0.00,10.00,VWS V14.01,2013-03-04 22:40:00,
2013-03-04 17:45:00,34.0,23.1,29.93,SW,225,13.0,21.0,64,-99.99,,,0.00,10.00,VWS V14.01,2013-03-04 22:45:00,
2013-03-04 17:50:00,34.0,23.1,29.93,SSW,202,11.0,20.0,64,-99.99,,,0.00,10.00,VWS V14.01,2013-03-04 22:50:00,
2013-03-04 17:55:00,34.0,23.1,29.93,SW,225,12.0,17.0,64,-99.99,,,0.00,0.00,VWS V14.01,2013-03-04 22:55:00,
2013-03-04 18:00:00,33.0,22.5,29.93,SW,225,10.0,16.0,65,-99.99,,,0.00,0.00,VWS V14.01,2013-03-04 23:00:00,
2013-03-04 18:05:00,33.0,22.5,29.93,WSW,248,12.0,17.0,65,-99.99,,,0.00,0.00,VWS V14.01,2013-03-04 23:05:00,
2013-03-04 18:10:00,33.0,22.5,29.93,SSW,202,16.0,16.0,65,-99.99,,,0.00,0.00,VWS V14.01,2013-03-04 23:10:00,
2013-03-04 18:15:00,33.0,22.9,29.93,WSW,248,12.0,16.0,66,-99.99,,,0.00,0.00,VWS V14.01,2013-03-04 23:15:00,
2013-03-04 18:20:00,33.0,22.9,29.94,SW,225,13.0,22.0,66,-99.99,,,0.00,0.00,VWS V14.01,2013-03-04 23:20:00,
2013-03-04 18:25:00,33.0,22.9,29.94,SSW,202,12.0,16.0,66,-99.99,,,0.00,0.00,VWS V14.01,2013-03-04 23:25:00,
2013-03-04 18:30:00,33.0,23.2,29.94,SSW,202,7.0,11.0,67,-99.99,,,0.00,0.00,VWS V14.01,2013-03-04 23:30:00,
2013-03-04 18:35:00,33.0,23.2,29.94,SW,225,15.0,18.0,67,-99.99,,,0.00,0.00,VWS V14.01,2013-03-04 23:35:00,
2013-03-04 18:40:00,33.0,23.6,29.94,West,270,4.0,8.0,68,-99.99,,,0.00,0.00,VWS V14.01,2013-03-04 23:40:00,
2013-03-04 18:45:00,33.0,23.6,29.94,SW,225,17.0,17.0,68,-99.99,,,0.00,0.00,VWS V14.01,2013-03-04 23:45:00,
2013-03-04 18:50:00,33.0,23.6,29.94,WSW,248,10.0,13.0,68,-99.99,,,0.00,0.00,VWS V14.01,2013-03-04 23:50:00,
2013-03-04 18:55:00,33.0,23.6,29.94,SW,225,8.0,16.0,68,-99.99,,,0.00,0.00,VWS V14.01,2013-03-04 23:55:00,
2013-03-04 19:00:00,33.0,24.0,29.95,WSW,248,10.0,10.0,69,-99.99,,,0.00,0.00,VWS V14.01,2013-03-05 00:00:00,
2013-03-04 19:05:00,33.0,24.0,29.95,SSE,158,4.0,12.0,69,-99.99,,,0.00,0.00,VWS V14.01,2013-03-05 00:05:00,
2013-03-04 19:10:00,33.0,24.0,29.95,SW,225,8.0,10.0,69,-99.99,,,0.00,0.00,VWS V14.01,2013-03-05 00:10:00,
2013-03-04 19:15:00,33.0,24.0,29.95,West,270,7.0,12.0,69,-99.99,,,0.00,0.00,VWS V14.01,2013-03-05 00:15:00,
2013-03-04 19:20:00,33.0,24.0,29.95,SW,225,8.0,13.0,69,-99.99,,,0.00,0.00,VWS V14.01,2013-03-05 00:20:00,
2013-03-04 19:25:00,32.0,23.0,29.95,WSW,248,18.0,22.0,69,-99.99,,,0.00,0.00,VWS V14.01,2013-03-05 00:25:00,
2013-03-04 19:30:00,33.0,24.0,29.95,SSW,202,14.0,19.0,69,-99.99,,,0.00,0.00,VWS V14.01,2013-03-05 00:30:00,
2013-03-04 19:35:00,32.0,23.3,29.96,WSW,248,8.0,18.0,70,-99.99,,,0.00,0.00,VWS V14.01,2013-03-05 00:35:00,
2013-03-04 19:40:00,32.0,23.0,29.95,WSW,248,10.0,20.0,69,-99.99,,,0.00,0.00,VWS V14.01,2013-03-05 00:40:00,
2013-03-04 19:45:00,32.0,23.3,29.96,WSW,248,11.0,16.0,70,-99.99,,,0.00,0.00,VWS V14.01,2013-03-05 00:45:00,
2013-03-04 19:50:00,32.0,23.3,29.95,WSW,248,10.0,17.0,70,-99.99,,,0.00,0.00,VWS V14.01,2013-03-05 00:50:00,
2013-03-04 19:55:00,32.0,23.3,29.96,West,270,9.0,12.0,70,-99.99,,,0.00,0.00,VWS V14.01,2013-03-05 00:55:00,
2013-03-04 20:00:00,32.0,23.3,29.96,SW,225,7.0,13.0,70,-99.99,,,0.00,0.00,VWS V14.01,2013-03-05 01:00:00,
2013-03-04 20:05:00,32.0,23.3,29.96,WSW,248,14.0,17.0,70,-99.99,,,0.00,0.00,VWS V14.01,2013-03-05 01:05:00,
2013-03-04 20:10:00,32.0,23.3,29.96,SW,225,6.0,7.0,70,-99.99,,,0.00,0.00,VWS V14.01,2013-03-05 01:10:00,
2013-03-04 20:15:00,32.0,23.3,29.96,WSW,248,14.0,17.0,70,-99.99,,,0.00,0.00,VWS V14.01,2013-03-05 01:15:00,
2013-03-04 20:20:00,32.0,23.3,29.96,WSW,248,10.0,11.0,70,-99.99,,,0.00,0.00,VWS V14.01,2013-03-05 01:20:00,
2013-03-04 20:25:00,32.0,23.3,29.96,WSW,248,14.0,22.0,70,-99.99,,,0.00,0.00,VWS V14.01,2013-03-05 01:25:00,
2013-03-04 20:30:00,32.0,23.3,29.96,West,270,9.0,10.0,70,-99.99,,,0.00,0.00,VWS V14.01,2013-03-05 01:30:00,
2013-03-04 20:35:00,32.0,23.3,29.97,SW,225,11.0,16.0,70,-99.99,,,0.00,0.00,VWS V14.01,2013-03-05 01:35:00,
2013-03-04 20:40:00,32.0,23.3,29.97,WSW,248,14.0,23.0,70,-99.99,,,0.00,0.00,VWS V14.01,2013-03-05 01:40:00,
2013-03-04 20:45:00,32.0,23.3,29.97,West,270,13.0,13.0,70,-99.99,,,0.00,0.00,VWS V14.01,2013-03-05 01:45:00,
2013-03-04 20:50:00,32.0,23.3,29.97,WSW,248,19.0,19.0,70,-99.99,,,0.00,0.00,VWS V14.01,2013-03-05 01:50:00,
2013-03-04 20:55:00,32.0,23.3,29.97,WSW,248,13.0,13.0,70,-99.99,,,0.00,0.00,VWS V14.01,2013-03-05 01:55:00,
2013-03-04 21:00:00,32.0,23.3,29.97,West,270,16.0,17.0,70,-99.99,,,0.00,0.00,VWS V14.01,2013-03-05 02:00:00,
2013-03-04 21:05:00,32.0,23.3,29.97,WSW,248,13.0,19.0,70,-99.99,,,0.00,0.00,VWS V14.01,2013-03-05 02:05:00,
2013-03-04 21:10:00,32.0,23.3,29.97,West,270,8.0,19.0,70,-99.99,,,0.00,0.00,VWS V14.01,2013-03-05 02:10:00,
2013-03-04 21:15:00,31.0,22.4,29.97,SW,225,21.0,25.0,70,-99.99,,,0.00,0.00,VWS V14.01,2013-03-05 02:15:00,
2013-03-04 21:20:00,31.0,22.4,29.97,WSW,248,12.0,16.0,70,-99.99,,,0.00,0.00,VWS V14.01,2013-03-05 02:20:00,
2013-03-04 21:25:00,31.0,22.4,29.97,West,270,9.0,15.0,70,-99.99,,,0.00,0.00,VWS V14.01,2013-03-05 02:25:00,
2013-03-04 21:30:00,31.0,22.4,29.98,SW,225,13.0,15.0,70,-99.99,,,0.00,0.00,VWS V14.01,2013-03-05 02:30:00,
2013-03-04 21:35:00,31.0,22.7,29.98,WSW,248,12.0,13.0,71,-99.99,,,0.00,0.00,VWS V14.01,2013-03-05 02:35:00,
2013-03-04 21:40:00,31.0,22.7,29.98,WSW,248,7.0,14.0,71,-99.99,,,0.00,0.00,VWS V14.01,2013-03-05 02:40:00,
2013-03-04 21:45:00,31.0,22.7,29.98,SW,225,9.0,17.0,71,-99.99,,,0.00,0.00,VWS V14.01,2013-03-05 02:45:00,
2013-03-04 21:50:00,31.0,22.7,29.98,WSW,248,9.0,16.0,71,-99.99,,,0.00,0.00,VWS V14.01,2013-03-05 02:50:00,
2013-03-04 21:55:00,31.0,22.7,29.98,WSW,248,14.0,17.0,71,-99.99,,,0.00,0.00,VWS V14.01,2013-03-05 02:55:00,
2013-03-04 22:00:00,31.0,22.7,29.98,WSW,248,9.0,15.0,71,-99.99,,,0.00,0.00,VWS V14.01,2013-03-05 03:00:00,
2013-03-04 22:05:00,31.0,22.7,29.98,WSW,248,13.0,16.0,71,-99.99,,,0.00,0.00,VWS V14.01,2013-03-05 03:05:00,
2013-03-04 22:10:00,31.0,22.7,29.98,WSW,248,7.0,18.0,71,-99.99,,,0.00,0.00,VWS V14.01,2013-03-05 03:10:00,
2013-03-04 22:15:00,31.0,22.7,29.99,West,270,11.0,15.0,71,-99.99,,,0.00,0.00,VWS V14.01,2013-03-05 03:15:00,
2013-03-04 22:20:00,31.0,22.4,29.98,WSW,248,12.0,17.0,70,-99.99,,,0.00,0.00,VWS V14.01,2013-03-05 03:20:00,
2013-03-04 22:25:00,31.0,22.7,29.99,West,270,9.0,13.0,71,-99.99,,,0.00,0.00,VWS V14.01,2013-03-05 03:25:00,
2013-03-04 22:30:00,31.0,22.7,29.99,WSW,248,12.0,14.0,71,-99.99,,,0.00,0.00,VWS V14.01,2013-03-05 03:30:00,
2013-03-04 22:35:00,31.0,22.7,29.99,WSW,248,10.0,15.0,71,-99.99,,,0.00,0.00,VWS V14.01,2013-03-05 03:35:00,
2013-03-04 22:40:00,31.0,22.7,29.99,West,270,17.0,19.0,71,-99.99,,,0.00,0.00,VWS V14.01,2013-03-05 03:40:00,
2013-03-04 22:45:00,31.0,22.7,29.99,West,270,13.0,16.0,71,-99.99,,,0.00,0.00,VWS V14.01,2013-03-05 03:45:00,
2013-03-04 22:50:00,31.0,22.7,29.99,SW,225,12.0,19.0,71,-99.99,,,0.00,0.00,VWS V14.01,2013-03-05 03:50:00,
2013-03-04 22:55:00,31.0,23.0,29.99,WSW,248,16.0,22.0,72,-99.99,,,0.00,0.00,VWS V14.01,2013-03-05 03:55:00,
2013-03-04 23:00:00,31.0,23.0,29.99,WSW,248,11.0,16.0,72,-99.99,,,0.00,0.00,VWS V14.01,2013-03-05 04:00:00,
2013-03-04 23:05:00,31.0,23.0,29.99,West,270,13.0,16.0,72,-99.99,,,0.00,0.00,VWS V14.01,2013-03-05 04:05:00,
2013-03-04 23:10:00,30.0,22.1,29.99,WSW,248,16.0,18.0,72,-99.99,,,0.00,0.00,VWS V14.01,2013-03-05 04:10:00,
2013-03-04 23:15:00,30.0,22.1,29.99,WSW,248,16.0,19.0,72,-99.99,,,0.00,0.00,VWS V14.01,2013-03-05 04:15:00,
2013-03-04 23:20:00,30.0,22.1,29.99,WSW,248,15.0,17.0,72,-99.99,,,0.00,0.00,VWS V14.01,2013-03-05 04:20:00,
2013-03-04 23:25:00,30.0,22.4,29.99,WSW,248,10.0,14.0,73,-99.99,,,0.00,0.00,VWS V14.01,2013-03-05 04:25:00,
2013-03-04 23:30:00,30.0,22.4,29.99,WSW,248,11.0,16.0,73,-99.99,,,0.00,0.00,VWS V14.01,2013-03-05 04:30:00,
2013-03-04 23:35:00,30.0,22.4,29.99,West,270,11.0,13.0,73,-99.99,,,0.00,0.00,VWS V14.01,2013-03-05 04:35:00,
2013-03-04 23:40:00,30.0,22.4,29.99,West,270,9.0,13.0,73,-99.99,,,0.00,0.00,VWS V14.01,2013-03-05 04:40:00,
2013-03-04 23:45:00,30.0,22.4,30.00,WSW,248,12.0,13.0,73,-99.99,,,0.00,0.00,VWS V14.01,2013-03-05 04:45:00,
2013-03-04 23:50:00,30.0,22.4,30.00,WSW,248,7.0,10.0,73,-99.99,,,0.00,0.00,VWS V14.01,2013-03-05 04:50:00,
2013-03-04 23:55:00,30.0,22.7,30.00,West,270,7.0,9.0,74,-99.99,,,0.00,0.00,VWS V14.01,2013-03-05 04:55:00,